Time;durP1;ratioP1;P1;durP2;ratioP2;P2;SDS_P1;SDS_P2;PMS_P1;PMS_P2;Temp;Humidity;BMP_temperature;BMP_pressure;BME280_temperature;BME280_humidity;BME280_pressure;Samples;Min_cycle;Max_cycle;Signal;HPM_P1;HPM_P2
2022/06/17 00:00:16;;;;;;;6.75;4.67;;;;;;;17.18;57.65;100642.66;1762087;79;21001;-49
2022/06/17 00:02:43;;;;;;;7.05;4.15;;;;;;;17.12;57.67;100643.30;1764011;80;21087;-49
2022/06/17 00:05:09;;;;;;;8.95;5.05;;;;;;;17.06;57.68;100640.78;1765196;80;20985;-50
2022/06/17 00:07:36;;;;;;;6.30;4.35;;;;;;;17.02;57.84;100643.41;1751817;80;21076;-49
2022/06/17 00:10:03;;;;;;;8.08;4.55;;;;;;;17.00;57.85;100637.92;1761832;80;21060;-49
2022/06/17 00:12:31;;;;;;;6.80;4.58;;;;;;;16.97;58.08;100641.72;1754100;80;21031;-49
2022/06/17 00:15:13;;;;;;;8.98;5.20;;;;;;;16.92;58.35;100642.69;1718700;81;21086;-51
2022/06/17 00:17:54;;;;;;;7.30;4.70;;;;;;;16.86;58.45;100638.84;1723769;81;21082;-49
2022/06/17 00:20:17;;;;;;;7.37;4.55;;;;;;;16.82;58.67;100639.28;1732200;81;21073;-49
2022/06/17 00:22:44;;;;;;;8.15;5.20;;;;;;;16.76;58.77;100637.25;1730400;80;21773;-49
2022/06/17 00:25:25;;;;;;;7.67;4.72;;;;;;;16.73;58.81;100642.39;1737969;81;21506;-49
2022/06/17 00:27:53;;;;;;;7.42;4.15;;;;;;;16.74;58.93;100638.73;1769019;79;21086;-49
2022/06/17 00:30:23;;;;;;;7.30;4.40;;;;;;;16.81;59.00;100639.79;1775991;79;21082;-49
2022/06/17 00:33:01;;;;;;;6.70;4.08;;;;;;;16.85;59.09;100635.02;1778022;79;21042;-49
2022/06/17 00:35:32;;;;;;;8.63;5.17;;;;;;;16.88;59.27;100632.05;1770771;79;21577;-49
2022/06/17 00:38:00;;;;;;;6.75;4.75;;;;;;;16.89;59.35;100630.57;1770890;79;21068;-49
2022/06/17 00:40:28;;;;;;;10.03;5.35;;;;;;;16.93;59.13;100634.22;1774082;79;21079;-49
2022/06/17 00:45:38;;;;;;;7.42;4.85;;;;;;;16.97;59.06;100624.95;1864024;76;21755;-48
2022/06/17 00:48:25;;;;;;;7.33;4.47;;;;;;;16.90;59.47;100629.56;1822600;77;22370;-49
2022/06/17 00:51:00;;;;;;;9.93;4.87;;;;;;;16.83;59.73;100635.14;1812983;77;21181;-48
2022/06/17 00:53:34;;;;;;;9.60;5.12;;;;;;;16.74;60.04;100633.92;1781041;78;21067;-50
2022/06/17 00:56:22;;;;;;;7.33;4.58;;;;;;;16.64;59.42;100635.34;1759848;80;21077;-50
2022/06/17 00:59:02;;;;;;;7.75;5.28;;;;;;;16.59;58.59;100638.97;1763826;80;21011;-50
2022/06/17 01:01:56;;;;;;;7.37;4.35;;;;;;;16.51;57.85;100633.13;1777949;79;21001;-48
2022/06/17 01:04:31;;;;;;;8.73;4.75;;;;;;;16.45;57.90;100633.23;1773955;79;21301;-49
2022/06/17 01:07:03;;;;;;;9.70;4.62;;;;;;;16.38;57.82;100629.53;1775243;79;21063;-50
2022/06/17 01:12:21;;;;;;;7.78;4.60;;;;;;;16.35;58.13;100621.87;1769070;79;21549;-49
2022/06/17 01:14:49;;;;;;;9.25;4.80;;;;;;;16.35;58.75;100626.68;1753394;80;21039;-50
2022/06/17 01:17:18;;;;;;;8.25;5.10;;;;;;;16.35;58.92;100617.89;1772067;79;21903;-49
2022/06/17 01:19:52;;;;;;;7.53;4.10;;;;;;;16.36;59.28;100618.23;1774990;79;21019;-52
2022/06/17 01:22:43;;;;;;;7.35;4.45;;;;;;;16.44;59.44;100615.64;1777189;79;21339;-50
2022/06/17 01:25:23;;;;;;;6.72;4.15;;;;;;;16.51;59.66;100612.70;1772911;79;21097;-49
2022/06/17 01:27:56;;;;;;;6.87;4.47;;;;;;;16.57;59.76;100613.88;1780710;79;21048;-49
2022/06/17 01:30:44;;;;;;;8.75;4.92;;;;;;;16.57;59.83;100609.90;1779982;79;21292;-50
2022/06/17 01:33:30;;;;;;;7.80;4.03;;;;;;;16.57;59.96;100615.72;1773745;79;21533;-50
2022/06/17 01:36:12;;;;;;;7.45;4.87;;;;;;;16.57;60.15;100614.39;1748966;80;21045;-48
2022/06/17 01:38:42;;;;;;;9.63;4.08;;;;;;;16.52;60.23;100613.05;1781042;79;20986;-49
2022/06/17 01:41:09;;;;;;;10.00;5.12;;;;;;;16.52;60.37;100613.52;1784247;79;21049;-49
2022/06/17 01:44:02;;;;;;;10.35;5.55;;;;;;;16.50;60.43;100615.00;1782803;79;22148;-49
2022/06/17 01:46:41;;;;;;;7.60;4.67;;;;;;;16.47;60.59;100611.32;1780887;79;21084;-49
2022/06/17 01:49:21;;;;;;;10.13;5.42;;;;;;;16.41;60.79;100609.78;1783411;79;21044;-49
2022/06/17 01:52:06;;;;;;;10.25;5.97;;;;;;;16.35;61.23;100608.09;1783707;79;21685;-49
2022/06/17 01:54:50;;;;;;;8.58;5.12;;;;;;;16.34;61.48;100615.73;1785875;79;21126;-50
2022/06/17 01:57:22;;;;;;;8.13;5.50;;;;;;;16.38;61.41;100612.27;1707993;80;23028;-51
2022/06/17 01:59:52;;;;;;;7.60;4.92;;;;;;;16.39;61.15;100605.98;1766919;79;20987;-50
2022/06/17 02:02:20;;;;;;;9.25;6.00;;;;;;;16.38;61.12;100608.28;1763136;80;21154;-50
2022/06/17 02:04:58;;;;;;;9.75;5.55;;;;;;;16.40;61.46;100607.63;1772387;79;20992;-50
2022/06/17 02:07:33;;;;;;;8.05;5.30;;;;;;;16.38;61.73;100602.98;1761604;79;21503;-50
2022/06/17 02:10:01;;;;;;;11.60;6.45;;;;;;;16.41;62.16;100610.64;1775629;80;21123;-50
2022/06/17 02:12:31;;;;;;;9.60;5.42;;;;;;;16.37;62.54;100607.94;1764051;79;21053;-50
2022/06/17 02:15:01;;;;;;;8.13;5.65;;;;;;;16.32;62.02;100610.23;1776100;80;21451;-50
2022/06/17 02:17:39;;;;;;;8.75;5.72;;;;;;;16.26;61.82;100602.89;1734934;79;21483;-50
2022/06/17 02:20:27;;;;;;;8.05;5.75;;;;;;;16.22;61.69;100600.20;1770837;80;21102;-50
2022/06/17 02:22:55;;;;;;;8.08;5.33;;;;;;;16.21;61.88;100597.22;1763524;79;21229;-50
2022/06/17 02:25:27;;;;;;;8.50;5.42;;;;;;;16.27;61.86;100600.09;1746854;80;21023;-50
2022/06/17 02:27:58;;;;;;;8.35;5.33;;;;;;;16.33;61.81;100593.31;1764659;79;21319;-50
2022/06/17 02:30:28;;;;;;;15.85;6.85;;;;;;;16.35;61.86;100594.81;1755436;79;21105;-50
2022/06/17 02:33:00;;;;;;;11.35;5.67;;;;;;;16.39;61.96;100587.39;1765737;79;21113;-50
2022/06/17 02:35:50;;;;;;;9.13;5.70;;;;;;;16.41;62.08;100592.52;1757933;79;21130;-50
2022/06/17 02:38:19;;;;;;;7.22;5.25;;;;;;;16.41;61.89;100595.17;1756512;79;21054;-49
2022/06/17 02:40:50;;;;;;;8.08;5.50;;;;;;;16.36;61.42;100594.34;1757889;79;21499;-49
2022/06/17 02:43:21;;;;;;;12.78;6.03;;;;;;;16.33;61.40;100588.83;1755233;79;21102;-49
2022/06/17 02:45:52;;;;;;;8.98;5.87;;;;;;;16.31;61.14;100591.31;1766635;79;21084;-49
2022/06/17 02:48:25;;;;;;;10.35;5.83;;;;;;;16.27;60.95;100590.80;1790471;78;21091;-49
2022/06/17 02:50:54;;;;;;;9.43;6.20;;;;;;;16.22;61.15;100590.40;1782396;78;21641;-49
2022/06/17 02:53:32;;;;;;;7.90;5.50;;;;;;;16.24;61.41;100591.10;1800249;78;21056;-49
2022/06/17 02:56:01;;;;;;;9.15;5.87;;;;;;;16.33;61.47;100588.83;1788286;78;21092;-50
2022/06/17 02:59:05;;;;;;;7.72;5.45;;;;;;;16.42;61.45;100588.38;1763061;80;21049;-50
2022/06/17 03:01:36;;;;;;;10.23;5.58;;;;;;;16.52;61.32;100584.30;1771431;78;21134;-50
2022/06/17 03:04:19;;;;;;;10.30;5.60;;;;;;;16.59;60.93;100585.84;1769709;78;21024;-50
2022/06/17 03:06:49;;;;;;;11.40;6.80;;;;;;;16.65;60.83;100582.56;1768245;78;21516;-50
2022/06/17 03:09:30;;;;;;;8.08;5.95;;;;;;;16.70;60.50;100584.25;1781205;78;21076;-50
2022/06/17 03:12:06;;;;;;;8.65;5.90;;;;;;;16.73;60.69;100579.95;1771860;78;21096;-51
2022/06/17 03:15:05;;;;;;;8.18;5.85;;;;;;;16.78;61.01;100586.09;1791106;80;22329;-50
2022/06/17 03:17:39;;;;;;;10.90;5.90;;;;;;;16.81;61.40;100584.45;1783331;78;21033;-49
2022/06/17 03:20:10;;;;;;;9.80;6.75;;;;;;;16.85;61.39;100583.20;1763603;80;21645;-52
2022/06/17 03:22:36;;;;;;;8.35;5.87;;;;;;;16.86;60.60;100586.17;1779587;78;21084;-49
2022/06/17 03:25:22;;;;;;;9.13;6.42;;;;;;;16.84;60.19;100581.02;1782802;78;21056;-49
2022/06/17 03:28:02;;;;;;;11.88;6.70;;;;;;;16.84;60.21;100574.84;1782995;78;21882;-50
2022/06/17 03:30:39;;;;;;;12.82;5.75;;;;;;;16.89;60.23;100577.88;1768480;78;21032;-50
2022/06/17 03:33:28;;;;;;;9.38;5.95;;;;;;;17.00;60.12;100580.27;1774452;78;21069;-50
2022/06/17 03:35:58;;;;;;;8.83;5.80;;;;;;;17.09;59.81;100579.80;1780047;80;21064;-50
2022/06/17 03:38:49;;;;;;;10.75;6.47;;;;;;;17.12;59.73;100575.49;1778101;78;21021;-50
2022/06/17 03:41:36;;;;;;;8.55;5.72;;;;;;;17.20;59.54;100576.85;1769660;78;21480;-50
2022/06/17 03:44:13;;;;;;;8.95;5.90;;;;;;;17.27;59.36;100577.05;1774142;78;21535;-50
2022/06/17 03:46:56;;;;;;;8.55;5.83;;;;;;;17.30;58.99;100576.72;1768850;80;21064;-50
2022/06/17 03:49:34;;;;;;;10.08;5.25;;;;;;;17.32;59.05;100584.54;1780607;78;21580;-50
2022/06/17 03:52:08;;;;;;;8.13;5.55;;;;;;;17.32;58.80;100577.89;1764389;78;21020;-50
2022/06/17 03:54:35;;;;;;;8.30;5.33;;;;;;;17.34;59.02;100575.90;1758930;78;21145;-50
2022/06/17 03:57:02;;;;;;;10.75;5.40;;;;;;;17.34;58.67;100576.72;1747705;80;20966;-50
2022/06/17 03:59:30;;;;;;;8.55;5.25;;;;;;;17.38;58.69;100576.75;1754438;80;21045;-50
2022/06/17 04:02:05;;;;;;;7.40;4.83;;;;;;;17.43;57.98;100577.09;1766589;80;21139;-50
2022/06/17 04:04:35;;;;;;;9.45;5.25;;;;;;;17.47;58.02;100580.25;1771332;78;21095;-50
2022/06/17 04:07:03;;;;;;;7.45;5.10;;;;;;;17.50;57.97;100578.60;1766710;78;21134;-50
2022/06/17 04:09:38;;;;;;;9.75;5.05;;;;;;;17.53;58.09;100575.59;1765427;79;21041;-50
2022/06/17 04:12:21;;;;;;;6.20;4.10;;;;;;;17.60;58.05;100575.29;1773392;78;21104;-50
2022/06/17 04:15:50;;;;;;;9.20;6.22;;;;;;;17.71;57.87;100575.97;1772910;80;21081;-51
2022/06/17 04:18:17;;;;;;;11.10;8.30;;;;;;;17.78;57.65;100575.63;1793002;78;21084;-49
2022/06/17 04:20:49;;;;;;;11.55;6.08;;;;;;;17.83;57.26;100575.97;1792543;78;21114;-50
2022/06/17 04:23:33;;;;;;;10.63;5.20;;;;;;;17.89;57.08;100570.53;1797151;78;21551;-49
2022/06/17 04:26:29;;;;;;;7.22;4.00;;;;;;;17.94;56.65;100570.35;1796462;78;21358;-49
2022/06/17 04:29:10;;;;;;;6.50;3.35;;;;;;;18.01;56.40;100571.34;1781950;78;21080;-50
2022/06/17 04:31:37;;;;;;;7.75;3.72;;;;;;;18.12;54.75;100573.33;1771367;80;21053;-49
2022/06/17 04:37:09;;;;;;;6.65;3.40;;;;;;;18.32;53.77;100569.81;1795326;78;22953;-50
2022/06/17 04:39:55;;;;;;;7.37;3.22;;;;;;;18.44;52.38;100574.29;1775213;80;21585;-50
2022/06/17 04:42:41;;;;;;;13.55;4.10;;;;;;;18.51;52.23;100570.78;1780934;80;21651;-50
2022/06/17 04:45:16;;;;;;;8.38;3.02;;;;;;;18.59;51.81;100571.25;1753371;80;21615;-50
2022/06/17 04:47:43;;;;;;;5.90;2.98;;;;;;;18.67;51.37;100563.23;1774917;80;21149;-51
2022/06/17 04:50:18;;;;;;;6.00;2.95;;;;;;;18.78;50.98;100565.20;1776774;80;21039;-50
2022/06/17 04:52:48;;;;;;;6.70;2.80;;;;;;;18.86;50.53;100565.20;1786168;80;21074;-50
2022/06/17 04:55:38;;;;;;;6.20;3.00;;;;;;;18.94;50.09;100566.50;1785019;80;21006;-49
2022/06/17 04:58:18;;;;;;;5.58;2.47;;;;;;;19.04;49.50;100568.45;1747785;80;20915;-50
2022/06/17 05:00:49;;;;;;;6.50;2.70;;;;;;;19.11;49.28;100565.44;1761549;79;21557;-50
2022/06/17 05:03:17;;;;;;;5.35;2.92;;;;;;;19.20;48.84;100562.70;1759070;80;21098;-50
2022/06/17 05:05:49;;;;;;;6.05;2.60;;;;;;;19.29;49.00;100563.00;1741040;80;20988;-50
2022/06/17 05:08:32;;;;;;;5.37;2.62;;;;;;;19.38;48.47;100565.94;1769482;80;21721;-52
2022/06/17 05:11:04;;;;;;;5.72;2.70;;;;;;;19.45;47.82;100558.06;1702424;82;21019;-50
2022/06/17 05:13:36;;;;;;;6.87;2.65;;;;;;;19.53;47.99;100558.01;1712555;82;21141;-50
2022/06/17 05:16:05;;;;;;;5.70;3.40;;;;;;;19.63;48.27;100560.45;1727805;81;21109;-50
2022/06/17 05:18:32;;;;;;;5.72;2.55;;;;;;;19.75;48.57;100559.05;1734002;81;21075;-50
2022/06/17 05:21:01;;;;;;;5.22;2.90;;;;;;;19.86;49.29;100553.80;1730146;80;22221;-49
2022/06/17 05:23:28;;;;;;;8.28;3.22;;;;;;;19.97;49.14;100548.53;1728431;80;21483;-50
2022/06/17 05:25:55;;;;;;;6.83;2.80;;;;;;;20.04;49.23;100548.97;1728306;80;21054;-50
2022/06/17 05:28:22;;;;;;;6.87;3.00;;;;;;;20.13;50.27;100549.72;1730017;80;21126;-50
2022/06/17 05:30:53;;;;;;;5.17;2.60;;;;;;;20.21;49.02;100546.16;1734967;80;21061;-50
2022/06/17 05:33:21;;;;;;;5.83;3.20;;;;;;;20.29;48.30;100547.41;1741926;80;21157;-50
2022/06/17 05:35:48;;;;;;;6.28;3.50;;;;;;;20.38;47.53;100542.80;1731783;80;21050;-50
2022/06/17 05:38:16;;;;;;;6.42;3.27;;;;;;;20.48;47.72;100543.36;1709375;83;21094;-50
2022/06/17 05:40:44;;;;;;;4.72;3.00;;;;;;;20.57;47.99;100536.89;1719040;82;21067;-50
2022/06/17 05:43:11;;;;;;;8.05;3.27;;;;;;;20.68;48.24;100540.14;1711018;82;21505;-50
2022/06/17 05:45:38;;;;;;;8.73;3.80;;;;;;;20.75;47.49;100545.91;1713439;82;21219;-50
2022/06/17 05:48:10;;;;;;;6.85;3.62;;;;;;;20.81;46.92;100538.98;1715099;83;20981;-50
2022/06/17 05:50:51;;;;;;;8.00;3.30;;;;;;;20.88;46.71;100541.25;1716462;82;20992;-50
2022/06/17 05:53:38;;;;;;;10.80;3.90;;;;;;;20.96;47.56;100537.14;1713258;82;21027;-50
2022/06/17 05:56:13;;;;;;;8.40;3.22;;;;;;;21.09;47.44;100535.63;1714981;83;21038;-50
2022/06/17 05:58:40;;;;;;;8.43;3.47;;;;;;;21.20;47.57;100534.30;1710875;83;21245;-50
2022/06/17 06:01:08;;;;;;;9.03;3.52;;;;;;;21.30;47.08;100534.33;1712352;81;21113;-49
2022/06/17 06:03:34;;;;;;;7.28;3.70;;;;;;;21.43;47.14;100539.49;1713936;83;20996;-49
2022/06/17 06:06:03;;;;;;;8.88;3.47;;;;;;;21.54;48.15;100535.01;1707755;83;21078;-49
2022/06/17 06:08:32;;;;;;;5.97;3.83;;;;;;;21.59;48.41;100532.59;1718940;82;21045;-50
2022/06/17 06:11:04;;;;;;;7.20;3.27;;;;;;;21.62;48.09;100531.36;1711917;82;21086;-50
2022/06/17 06:13:33;;;;;;;6.05;3.27;;;;;;;21.68;47.80;100535.44;1712982;81;21098;-49
2022/06/17 06:16:01;;;;;;;6.20;3.35;;;;;;;21.77;48.09;100528.61;1712432;83;21031;-50
2022/06/17 06:18:34;;;;;;;5.03;3.58;;;;;;;21.89;48.24;100531.10;1716525;82;21071;-50
2022/06/17 06:21:06;;;;;;;5.50;3.02;;;;;;;22.01;48.43;100529.54;1723319;82;21101;-51
2022/06/17 06:23:36;;;;;;;7.30;3.12;;;;;;;22.12;47.57;100524.66;1715369;83;21140;-50
2022/06/17 06:26:03;;;;;;;6.58;2.87;;;;;;;22.21;46.25;100527.01;1708062;82;21046;-50
2022/06/17 06:28:31;;;;;;;6.67;2.80;;;;;;;22.31;45.80;100528.03;1707578;81;21046;-50
2022/06/17 06:31:32;;;;;;;5.20;3.02;;;;;;;22.45;46.63;100521.71;1712341;83;21573;-50
2022/06/17 06:34:00;;;;;;;5.17;2.45;;;;;;;22.58;45.71;100521.48;1700241;82;21053;-50
2022/06/17 06:36:29;;;;;;;4.67;2.22;;;;;;;22.73;43.44;100522.17;1734865;80;21138;-51
2022/06/17 06:38:56;;;;;;;5.40;2.45;;;;;;;22.88;40.61;100518.50;1756076;80;21114;-51
2022/06/17 06:41:22;;;;;;;4.75;2.45;;;;;;;23.04;42.31;100514.66;1763735;80;21110;-50
2022/06/17 06:43:51;;;;;;;4.70;1.98;;;;;;;23.16;42.68;100510.38;1756192;80;21102;-50
2022/06/17 06:46:31;;;;;;;6.47;2.52;;;;;;;23.28;42.26;100508.73;1701273;80;21101;-51
2022/06/17 06:48:58;;;;;;;4.58;2.30;;;;;;;23.35;42.18;100508.75;1756227;80;21135;-50
2022/06/17 06:51:25;;;;;;;11.33;3.15;;;;;;;23.43;41.83;100500.51;1750937;80;20992;-51
2022/06/17 06:53:55;;;;;;;5.03;1.92;;;;;;;23.52;41.63;100505.19;1720132;82;21028;-50
2022/06/17 06:56:22;;;;;;;13.18;3.10;;;;;;;23.57;39.15;100502.71;1751663;80;21147;-51
2022/06/17 06:58:49;;;;;;;8.08;1.98;;;;;;;23.65;37.20;100498.98;1751442;80;21056;-51
2022/06/17 07:01:16;;;;;;;4.90;2.20;;;;;;;23.76;37.45;100497.55;1708878;81;21209;-51
2022/06/17 07:03:43;;;;;;;4.97;1.95;;;;;;;23.86;39.90;100498.80;1749860;80;21540;-50
2022/06/17 07:06:11;;;;;;;4.62;1.95;;;;;;;23.92;39.71;100503.36;1755132;80;21392;-51
2022/06/17 07:08:39;;;;;;;5.25;1.70;;;;;;;24.00;38.63;100499.61;1716734;82;21004;-50
2022/06/17 07:11:07;;;;;;;4.55;1.40;;;;;;;24.07;37.29;100500.95;1755821;80;21496;-50
2022/06/17 07:13:35;;;;;;;8.85;2.37;;;;;;;24.16;33.88;100494.33;1750609;80;21110;-50
2022/06/17 07:16:06;;;;;;;4.33;1.92;;;;;;;24.23;33.30;100492.98;1751918;80;21118;-50
2022/06/17 07:18:35;;;;;;;3.75;1.70;;;;;;;24.33;32.88;100496.58;1749922;80;21126;-50
2022/06/17 07:21:05;;;;;;;5.70;1.45;;;;;;;24.37;31.78;100508.02;1706167;82;21571;-50
2022/06/17 07:23:37;;;;;;;8.80;1.75;;;;;;;24.39;31.59;100501.09;1755418;80;21082;-51
2022/06/17 07:26:13;;;;;;;4.62;1.90;;;;;;;24.44;32.07;100501.28;1754742;80;21121;-50
2022/06/17 07:28:40;;;;;;;5.53;2.17;;;;;;;24.51;31.74;100498.08;1746962;80;21121;-50
2022/06/17 07:31:08;;;;;;;9.63;1.92;;;;;;;24.54;31.75;100494.94;1752545;80;21084;-50
2022/06/17 07:33:35;;;;;;;4.00;1.47;;;;;;;24.53;31.40;100494.65;1758029;80;21114;-52
2022/06/17 07:36:04;;;;;;;4.05;1.80;;;;;;;24.52;31.13;100494.33;1752062;80;21068;-50
2022/06/17 07:41:21;;;;;;;6.75;2.17;;;;;;;24.53;31.93;100497.34;1724451;82;21107;-49
2022/06/17 07:43:48;;;;;;;3.90;1.77;;;;;;;24.53;32.11;100498.69;1717926;82;21011;-50
2022/06/17 07:46:16;;;;;;;4.10;1.60;;;;;;;24.52;31.82;100498.36;1757398;80;21056;-49
2022/06/17 07:48:42;;;;;;;5.75;1.90;;;;;;;24.52;31.98;100498.36;1756485;80;21095;-49
2022/06/17 07:51:11;;;;;;;8.73;2.10;;;;;;;24.55;32.22;100503.36;1745416;80;21123;-49
2022/06/17 07:53:42;;;;;;;4.28;1.67;;;;;;;24.57;32.15;100499.92;1720376;81;21079;-49
2022/06/17 07:56:06;;;;;;;3.55;1.62;;;;;;;24.58;31.79;100505.63;1751135;80;21059;-49
2022/06/17 07:58:32;;;;;;;9.95;2.20;;;;;;;24.54;31.58;100500.31;1750783;80;21040;-49
2022/06/17 08:00:59;;;;;;;5.83;1.80;;;;;;;24.53;31.54;100497.84;1750822;80;21616;-50
2022/06/17 08:03:25;;;;;;;5.83;2.00;;;;;;;24.52;31.33;100501.58;1746430;80;21595;-49
2022/06/17 08:05:54;;;;;;;5.47;2.08;;;;;;;24.51;31.80;100498.57;1756601;80;21043;-49
2022/06/17 08:08:23;;;;;;;3.83;1.50;;;;;;;24.51;32.20;100500.77;1751240;80;21090;-49
2022/06/17 08:10:58;;;;;;;3.55;1.37;;;;;;;24.54;31.40;100497.63;1761991;80;21141;-49
2022/06/17 08:13:26;;;;;;;3.83;1.60;;;;;;;24.56;30.84;100490.23;1764258;80;21105;-49
2022/06/17 08:15:55;;;;;;;2.72;1.20;;;;;;;24.62;30.90;100490.70;1751466;80;21073;-50
2022/06/17 08:18:22;;;;;;;4.17;1.57;;;;;;;24.73;31.28;100494.61;1749885;80;21621;-49
2022/06/17 08:20:49;;;;;;;3.90;1.82;;;;;;;24.81;31.00;100493.52;1746917;80;21063;-49
2022/06/17 08:23:16;;;;;;;5.03;1.62;;;;;;;24.86;31.33;100497.73;1747309;80;21024;-50
2022/06/17 08:25:45;;;;;;;5.05;2.17;;;;;;;24.91;31.38;100491.19;1752971;80;21586;-50
2022/06/17 08:28:12;;;;;;;5.00;1.70;;;;;;;24.96;31.63;100494.06;1748289;80;21134;-50
2022/06/17 08:30:49;;;;;;;5.40;2.00;;;;;;;25.00;31.91;100487.22;1755940;80;21042;-49
2022/06/17 08:33:17;;;;;;;5.00;1.90;;;;;;;25.08;31.90;100478.05;1743519;80;21098;-50
2022/06/17 08:35:45;;;;;;;3.45;1.50;;;;;;;25.18;31.69;100491.89;1765126;80;21094;-49
2022/06/17 08:38:24;;;;;;;4.03;1.60;;;;;;;25.22;31.70;100494.97;1736477;80;21051;-49
2022/06/17 08:41:00;;;;;;;5.37;1.90;;;;;;;25.22;30.83;100489.58;1742824;81;21127;-50
2022/06/17 08:43:51;;;;;;;5.58;1.95;;;;;;;25.21;31.03;100489.27;1734173;82;21013;-50
2022/06/17 08:47:04;;;;;;;4.37;1.92;;;;;;;25.17;31.22;100491.57;1747168;82;21108;-50
2022/06/17 08:49:55;;;;;;;5.42;1.80;;;;;;;25.09;31.34;100489.66;1732186;81;21090;-50
2022/06/17 08:53:20;;;;;;;4.37;1.90;;;;;;;25.01;31.09;100492.08;1744939;81;21063;-50
2022/06/17 08:56:02;;;;;;;4.47;1.90;;;;;;;24.98;31.62;100494.70;1745558;80;22088;-49
2022/06/17 08:58:52;;;;;;;4.58;2.00;;;;;;;24.93;31.08;100490.48;1746457;82;22319;-49
2022/06/17 09:01:54;;;;;;;4.10;1.82;;;;;;;24.87;31.27;100495.36;1728829;81;21024;-50
2022/06/17 09:05:03;;;;;;;4.10;2.00;;;;;;;24.81;31.18;100495.71;1743656;81;21561;-50
2022/06/17 09:07:39;;;;;;;7.70;1.98;;;;;;;24.66;30.66;100491.94;1715120;82;21111;-50
2022/06/17 09:10:35;;;;;;;3.75;1.50;;;;;;;24.55;31.53;100492.59;1741069;82;21113;-50
2022/06/17 09:13:22;;;;;;;6.37;1.60;;;;;;;24.50;31.10;100495.59;1733494;82;21684;-50
2022/06/17 09:16:14;;;;;;;5.05;1.98;;;;;;;24.41;30.79;100496.33;1743100;80;21063;-50
2022/06/17 09:18:43;;;;;;;4.05;1.62;;;;;;;24.37;31.36;100493.77;1746276;81;22101;-50
2022/06/17 09:21:35;;;;;;;3.72;1.62;;;;;;;24.37;31.16;100489.20;1746336;82;21486;-50
2022/06/17 09:24:08;;;;;;;4.67;1.80;;;;;;;24.41;31.41;100485.56;1745234;80;21139;-49
2022/06/17 09:26:46;;;;;;;4.33;1.87;;;;;;;24.49;31.56;100486.68;1738263;82;21381;-50
2022/06/17 09:29:24;;;;;;;4.00;1.87;;;;;;;24.56;31.75;100487.53;1744946;81;21627;-50
2022/06/17 09:31:59;;;;;;;4.75;1.72;;;;;;;24.60;31.19;100483.90;1746874;82;21076;-50
2022/06/17 09:35:04;;;;;;;3.55;1.45;;;;;;;24.58;30.83;100483.27;1720782;82;21098;-50
2022/06/17 09:37:42;;;;;;;3.87;1.80;;;;;;;24.56;30.04;100484.00;1731398;82;21112;-49
2022/06/17 09:40:20;;;;;;;7.03;2.17;;;;;;;24.59;30.23;100485.73;1685526;84;21035;-50
2022/06/17 09:43:02;;;;;;;4.60;1.67;;;;;;;24.60;31.11;100484.71;1733633;82;21070;-51
2022/06/17 09:45:54;;;;;;;5.17;1.67;;;;;;;24.61;31.16;100478.80;1739244;82;21105;-50
2022/06/17 09:48:53;;;;;;;4.35;1.67;;;;;;;24.64;31.03;100479.20;1680508;84;21082;-51
2022/06/17 09:51:38;;;;;;;4.87;1.52;;;;;;;24.75;30.99;100472.87;1736470;82;21986;-50
2022/06/17 09:54:13;;;;;;;4.10;1.72;;;;;;;24.85;30.60;100466.50;1740135;82;21629;-50
2022/06/17 09:56:55;;;;;;;5.60;2.27;;;;;;;24.97;30.91;100466.11;1732231;82;21047;-50
2022/06/17 09:59:33;;;;;;;4.05;1.45;;;;;;;25.12;30.84;100463.66;1731819;82;21562;-51
2022/06/17 10:02:08;;;;;;;6.25;1.75;;;;;;;25.21;29.81;100471.23;1732962;82;21063;-49
2022/06/17 10:04:35;;;;;;;5.65;1.65;;;;;;;25.30;30.09;100470.50;1694268;82;21350;-50
2022/06/17 10:07:25;;;;;;;3.10;1.30;;;;;;;25.41;29.56;100464.92;1731612;82;21621;-50
2022/06/17 10:10:13;;;;;;;2.62;1.10;;;;;;;25.52;28.94;100461.53;1735765;82;21004;-50
2022/06/17 10:13:15;;;;;;;3.62;1.70;;;;;;;25.69;29.56;100458.29;1722746;82;21121;-51
2022/06/17 10:19:03;;;;;;;3.08;1.42;;;;;;;26.03;28.32;100454.24;1736276;82;21134;-51
2022/06/17 10:21:43;;;;;;;5.87;1.70;;;;;;;26.07;26.82;100459.47;1740403;82;20972;-51
2022/06/17 10:24:15;;;;;;;5.80;2.00;;;;;;;26.09;27.17;100444.42;1730291;82;21624;-51
2022/06/17 10:26:50;;;;;;;4.37;1.62;;;;;;;26.18;26.94;100449.84;1738204;82;21031;-51
2022/06/17 10:29:30;;;;;;;3.10;1.40;;;;;;;26.26;27.12;100435.20;1718890;82;21069;-49
2022/06/17 10:31:57;;;;;;;5.65;1.40;;;;;;;26.38;27.84;100444.72;1734546;82;22037;-49
2022/06/17 10:34:43;;;;;;;4.55;1.67;;;;;;;26.47;26.78;100433.94;1726838;82;21083;-49
2022/06/17 10:37:09;;;;;;;3.62;1.57;;;;;;;26.53;26.89;100441.13;1738833;80;21570;-49
2022/06/17 10:39:36;;;;;;;2.87;1.37;;;;;;;26.62;25.99;100440.28;1725214;83;21085;-49
2022/06/17 10:42:04;;;;;;;3.05;1.32;;;;;;;26.65;25.30;100432.59;1721535;83;21054;-49
2022/06/17 10:44:31;;;;;;;4.85;1.45;;;;;;;26.71;25.61;100422.73;1708894;82;21117;-50
2022/06/17 10:47:23;;;;;;;3.52;1.42;;;;;;;26.84;25.96;100419.05;1722891;82;21078;-49
2022/06/17 10:49:58;;;;;;;3.45;1.62;;;;;;;26.99;26.39;100424.02;1724097;83;21059;-50
2022/06/17 10:52:42;;;;;;;4.00;1.30;;;;;;;27.09;25.12;100415.37;1719444;83;21075;-49
2022/06/17 10:55:19;;;;;;;3.55;1.50;;;;;;;27.13;24.99;100411.13;1723834;82;21031;-49
2022/06/17 10:58:22;;;;;;;3.15;1.20;;;;;;;27.20;24.90;100410.49;1704250;83;21111;-49
2022/06/17 11:00:56;;;;;;;3.77;1.32;;;;;;;27.25;24.56;100402.00;1719312;82;21004;-49
2022/06/17 11:03:33;;;;;;;2.65;1.15;;;;;;;27.38;24.64;100400.16;1725136;82;22188;-49
2022/06/17 11:06:18;;;;;;;4.85;1.50;;;;;;;27.53;24.07;100403.75;1724665;82;21066;-49
2022/06/17 11:09:03;;;;;;;4.15;1.40;;;;;;;27.66;23.80;100409.47;1720013;82;21771;-50
2022/06/17 11:14:46;;;;;;;6.03;1.55;;;;;;;27.70;23.81;100401.98;1725275;83;21083;-49
2022/06/17 11:17:34;;;;;;;4.00;1.30;;;;;;;27.76;24.37;100396.98;1701167;83;21077;-49
2022/06/17 11:20:24;;;;;;;4.50;1.22;;;;;;;27.91;24.50;100392.45;1709207;83;21594;-49
2022/06/17 11:22:55;;;;;;;3.62;1.50;;;;;;;28.12;24.78;100384.78;1724809;83;21589;-49
2022/06/17 11:25:35;;;;;;;6.33;1.82;;;;;;;28.27;24.21;100379.68;1724829;83;21122;-49
2022/06/17 11:28:25;;;;;;;6.15;1.82;;;;;;;28.38;23.92;100379.36;1706392;83;21075;-51
2022/06/17 11:31:13;;;;;;;4.85;1.62;;;;;;;28.33;23.25;100381.44;1710880;82;21082;-49
2022/06/17 11:33:58;;;;;;;4.12;1.20;;;;;;;28.25;23.45;100376.40;1712805;82;21575;-50
2022/06/17 11:36:33;;;;;;;2.90;1.27;;;;;;;28.26;23.57;100375.34;1713156;83;21066;-49
2022/06/17 11:39:28;;;;;;;;;;;;;;;28.41;23.71;100373.47;1735452;82;21168;-50
2022/06/17 11:41:55;;;;;;;6.55;1.57;;;;;;;28.58;23.03;100368.14;1742724;80;20219;-50
2022/06/17 11:44:24;;;;;;;4.67;1.52;;;;;;;28.67;23.28;100368.02;1739973;81;21086;-50
2022/06/17 11:47:01;;;;;;;4.95;1.62;;;;;;;28.79;22.87;100362.53;1738961;82;21004;-50
2022/06/17 11:49:35;;;;;;;3.72;1.62;;;;;;;28.83;23.04;100361.51;1737374;82;21054;-53
2022/06/17 11:52:08;;;;;;;4.40;1.57;;;;;;;28.86;22.64;100365.90;1738631;80;21101;-49
2022/06/17 11:54:40;;;;;;;3.83;1.52;;;;;;;28.87;22.73;100359.97;1742866;81;21610;-50
2022/06/17 11:57:30;;;;;;;7.83;1.47;;;;;;;28.75;22.04;100364.61;1739791;80;21571;-50
2022/06/17 11:59:59;;;;;;;3.62;1.45;;;;;;;28.65;22.47;100362.03;1740207;81;21585;-50
2022/06/17 12:02:27;;;;;;;4.37;1.42;;;;;;;28.60;23.03;100357.88;1746170;81;21083;-50
2022/06/17 12:05:05;;;;;;;4.12;1.50;;;;;;;28.52;22.83;100350.12;1737344;81;21139;-50
2022/06/17 12:07:58;;;;;;;5.47;1.52;;;;;;;28.54;23.14;100356.10;1742871;81;21131;-50
2022/06/17 12:10:50;;;;;;;3.50;1.57;;;;;;;28.54;23.46;100346.63;1740135;81;21096;-50
2022/06/17 12:13:49;;;;;;;4.45;1.57;;;;;;;28.53;23.63;100339.59;1742946;82;21035;-50
2022/06/17 12:16:35;;;;;;;3.58;1.60;;;;;;;28.68;23.45;100343.11;1735291;80;21103;-49
2022/06/17 12:19:03;;;;;;;10.38;2.80;;;;;;;28.71;23.62;100337.21;1738498;81;21137;-49
2022/06/17 12:22:00;;;;;;;4.62;1.72;;;;;;;28.66;23.72;100332.52;1739765;82;21056;-50